Time;durP1;ratioP1;P1;durP2;ratioP2;P2;SDS_P1;SDS_P2;PMS_P1;PMS_P2;Temp;Humidity;BMP_temperature;BMP_pressure;BME280_temperature;BME280_humidity;BME280_pressure;Samples;Min_cycle;Max_cycle;Signal;HPM_P1;HPM_P2
2022/03/14 00:01:24;;;;;;;15.80;10.80;;;;;;;9.93;36.94;101607.25;4714373;29;122137;-86
2022/03/14 00:04:08;;;;;;;;;;;;;;;;;;;;;
2022/03/14 00:06:39;;;;;;;15.98;11.00;;;;;;;9.91;37.89;101615.13;4715817;29;119926;-87
2022/03/14 00:09:10;;;;;;;14.68;10.02;;;;;;;9.84;37.55;101611.34;4726319;29;121442;-87
2022/03/14 00:11:49;;;;;;;14.52;10.25;;;;;;;9.41;38.54;101548.41;4728761;29;123395;-86
2022/03/14 00:14:18;;;;;;;13.60;10.00;;;;;;;9.59;38.25;101577.41;4730543;29;120178;-87
2022/03/14 00:16:51;;;;;;;16.35;10.98;;;;;;;9.78;38.02;101609.53;4743311;29;122960;-87
2022/03/14 00:19:20;;;;;;;15.55;10.52;;;;;;;9.41;38.30;101561.31;4729605;29;120211;-87
2022/03/14 00:21:56;;;;;;;15.05;11.00;;;;;;;9.68;38.40;101614.00;4747222;29;121813;-86
2022/03/14 00:24:25;;;;;;;15.93;9.88;;;;;;;9.66;38.29;101605.44;4728476;29;120094;-87
2022/03/14 00:26:54;;;;;;;15.85;10.55;;;;;;;9.30;38.81;101560.75;4717780;29;119476;-89
2022/03/14 00:29:28;;;;;;;17.13;10.82;;;;;;;9.58;38.37;101606.78;4714976;29;121989;-88
2022/03/14 00:32:14;;;;;;;16.33;10.25;;;;;;;9.29;38.20;101565.47;4698676;29;121054;-88
2022/03/14 00:34:41;;;;;;;14.93;9.80;;;;;;;9.74;38.29;101639.75;4710151;29;121955;-88
2022/03/14 00:37:15;;;;;;;16.90;10.52;;;;;;;9.77;38.40;101654.56;4733192;29;121472;-87
2022/03/14 00:39:43;;;;;;;13.52;9.60;;;;;;;9.27;38.23;101575.31;4726753;29;121455;-88
2022/03/14 00:42:09;;;;;;;14.75;10.20;;;;;;;9.43;38.63;101614.47;4729328;29;121653;-88
2022/03/14 00:44:42;;;;;;;16.20;10.20;;;;;;;9.23;38.94;101578.88;4728055;29;122935;-87
2022/03/14 00:47:14;;;;;;;14.83;9.23;;;;;;;9.61;38.70;101636.06;4728576;29;120496;-87
2022/03/14 00:49:42;;;;;;;14.48;9.70;;;;;;;9.45;38.88;101616.78;4724135;29;122282;-87
2022/03/14 00:52:10;;;;;;;16.25;10.73;;;;;;;9.67;38.17;101656.28;4715084;29;122633;-87
2022/03/14 00:54:38;;;;;;;15.23;10.07;;;;;;;9.56;38.69;101638.53;4718348;29;119422;-87
2022/03/14 00:57:17;;;;;;;15.93;9.88;;;;;;;9.29;38.31;101601.06;4727812;29;122479;-88
2022/03/14 00:59:43;;;;;;;17.67;10.88;;;;;;;9.37;38.91;101612.66;4716612;29;122466;-87
2022/03/14 01:02:09;;;;;;;14.82;10.07;;;;;;;9.53;39.40;101631.94;4714385;29;122355;-87
2022/03/14 01:04:35;;;;;;;14.85;9.88;;;;;;;9.40;38.10;101604.38;4724452;29;122747;-88
2022/03/14 01:07:04;;;;;;;13.35;9.55;;;;;;;9.30;38.58;101599.09;4713386;29;120000;-88
2022/03/14 01:09:37;;;;;;;15.10;10.00;;;;;;;9.49;39.05;101631.22;4744011;29;119537;-87
2022/03/14 01:12:08;;;;;;;17.60;10.38;;;;;;;9.57;38.42;101640.06;4717269;29;122513;-87
2022/03/14 01:14:39;;;;;;;15.20;9.50;;;;;;;9.46;38.60;101627.34;4704682;29;119352;-87
2022/03/14 01:17:08;;;;;;;15.63;9.73;;;;;;;9.26;38.34;101604.66;4713214;29;122234;-87
2022/03/14 01:19:38;;;;;;;15.15;9.63;;;;;;;9.45;38.96;101635.97;4709592;29;122740;-88
2022/03/14 01:22:10;;;;;;;15.63;9.65;;;;;;;9.39;38.46;101623.97;4710992;29;119960;-88
2022/03/14 01:24:38;;;;;;;13.52;9.65;;;;;;;9.43;38.69;101641.88;4695432;29;122836;-88
2022/03/14 01:27:06;;;;;;;16.77;10.50;;;;;;;9.16;38.31;101605.59;4716683;29;120323;-88
2022/03/14 01:29:34;;;;;;;14.88;9.77;;;;;;;9.56;38.14;101674.13;4712894;29;123854;-88
2022/03/14 01:32:04;;;;;;;14.73;10.13;;;;;;;9.53;38.95;101678.50;4728683;29;123126;-88
2022/03/14 01:34:40;;;;;;;15.32;9.57;;;;;;;9.16;38.84;101620.06;4744424;29;119681;-88
2022/03/14 01:37:07;;;;;;;13.63;9.82;;;;;;;9.30;38.99;101653.84;4723169;29;122268;-88
2022/03/14 01:39:32;;;;;;;18.50;9.65;;;;;;;9.57;39.34;101686.63;4699160;29;123373;-88
2022/03/14 01:41:58;;;;;;;14.23;9.90;;;;;;;9.22;38.59;101642.22;4748190;29;120056;-88
2022/03/14 01:44:25;;;;;;;14.82;9.70;;;;;;;9.22;39.12;101643.00;4735174;29;123164;-87
2022/03/14 01:46:52;;;;;;;14.93;9.48;;;;;;;9.20;38.42;101647.34;4723118;29;119647;-88
2022/03/14 01:49:18;;;;;;;14.95;10.02;;;;;;;8.98;39.31;101607.84;4711719;29;121829;-88
2022/03/14 01:51:46;;;;;;;14.25;9.23;;;;;;;8.94;38.93;101602.44;4711641;29;122914;-87
2022/03/14 01:54:15;;;;;;;16.23;10.05;;;;;;;9.22;38.65;101651.22;4725703;29;119418;-88
2022/03/14 01:56:44;;;;;;;13.70;9.38;;;;;;;8.95;38.83;101609.47;4717894;29;119846;-88
2022/03/14 01:59:12;;;;;;;18.85;10.15;;;;;;;9.29;38.39;101658.56;4722272;29;122856;-88
2022/03/14 02:01:43;;;;;;;14.90;9.35;;;;;;;9.50;38.70;101698.50;4743521;29;119719;-88
2022/03/14 02:04:08;;;;;;;18.00;9.80;;;;;;;9.29;38.10;101658.56;4714275;29;122371;-88
2022/03/14 02:06:57;;;;;;;14.77;10.88;;;;;;;9.36;38.92;101669.38;4743144;29;119347;-88
2022/03/14 02:09:23;;;;;;;13.75;9.80;;;;;;;8.99;39.82;101609.41;4717355;29;121649;-88
2022/03/14 02:11:56;;;;;;;15.65;10.57;;;;;;;9.52;39.39;101683.19;4742276;29;123466;-88
2022/03/14 02:14:25;;;;;;;14.52;9.93;;;;;;;8.98;39.59;101605.13;4723133;29;119392;-88
2022/03/14 02:16:53;;;;;;;15.90;9.88;;;;;;;9.31;38.76;101655.41;4708973;29;121985;-88
2022/03/14 02:19:20;;;;;;;16.77;9.88;;;;;;;9.25;39.62;101646.91;4739106;29;120183;-88
2022/03/14 02:21:55;;;;;;;14.52;9.13;;;;;;;9.37;39.43;101661.94;4720662;29;119917;-88
2022/03/14 02:24:28;;;;;;;15.75;10.02;;;;;;;9.12;40.08;101632.25;4698138;29;122273;-88
2022/03/14 02:26:54;;;;;;;15.07;10.53;;;;;;;9.32;40.10;101667.91;4731370;29;122815;-88
2022/03/14 02:29:23;;;;;;;16.00;10.50;;;;;;;9.08;40.07;101637.78;4728602;29;121414;-88
2022/03/14 02:31:59;;;;;;;16.35;10.95;;;;;;;9.16;40.42;101652.91;4702595;29;123089;-87
2022/03/14 02:34:47;;;;;;;14.75;10.00;;;;;;;9.28;40.71;101676.19;4712461;29;119815;-88
2022/03/14 02:37:15;;;;;;;15.73;10.60;;;;;;;9.04;40.52;101634.34;4687263;29;121531;-88
2022/03/14 02:39:41;;;;;;;16.38;10.07;;;;;;;9.18;39.76;101668.91;4726628;29;120510;-87
2022/03/14 02:42:16;;;;;;;14.98;10.20;;;;;;;8.98;40.34;101633.25;4699364;29;119359;-87
2022/03/14 02:44:44;;;;;;;17.10;10.75;;;;;;;8.79;40.28;101609.34;4724643;29;120755;-88
2022/03/14 02:47:11;;;;;;;15.02;9.93;;;;;;;9.21;39.74;101677.06;4743482;29;120067;-88
2022/03/14 02:49:40;;;;;;;15.65;10.93;;;;;;;8.97;40.39;101647.34;4731496;29;119792;-88
2022/03/14 02:52:08;;;;;;;15.05;10.52;;;;;;;9.04;40.17;101658.97;4713033;29;121872;-88
2022/03/14 02:54:42;;;;;;;15.38;11.10;;;;;;;8.87;40.65;101640.88;4729290;29;119713;-88
2022/03/14 02:57:11;;;;;;;17.50;11.60;;;;;;;9.04;40.58;101672.66;4716622;29;121860;-89
2022/03/14 02:59:37;;;;;;;17.17;10.88;;;;;;;9.12;40.21;101689.72;4723220;29;123358;-88
2022/03/14 03:02:05;;;;;;;18.20;11.35;;;;;;;8.60;40.18;101619.78;4728596;29;119726;-88
2022/03/14 03:04:36;;;;;;;20.17;11.90;;;;;;;8.95;40.82;101677.88;4710447;29;122368;-88
2022/03/14 03:07:02;;;;;;;15.27;11.13;;;;;;;9.01;40.85;101689.91;4727962;29;122591;-88
2022/03/14 03:09:49;;;;;;;16.15;10.95;;;;;;;9.01;40.32;101689.91;4717473;29;120421;-89
2022/03/14 03:12:15;;;;;;;20.00;11.43;;;;;;;8.59;40.04;101626.44;4714551;29;122033;-88
2022/03/14 03:14:44;;;;;;;18.50;11.65;;;;;;;8.85;40.26;101668.66;4731021;29;119637;-88
2022/03/14 03:17:22;;;;;;;16.02;11.18;;;;;;;8.88;40.07;101675.25;4729839;29;122214;-88
2022/03/14 03:19:57;;;;;;;19.48;12.18;;;;;;;8.82;41.00;101666.75;4716922;29;123042;-89
2022/03/14 03:22:26;;;;;;;17.27;11.95;;;;;;;8.49;40.81;101618.38;4730964;29;119838;-89
2022/03/14 03:24:54;;;;;;;17.45;12.07;;;;;;;8.79;40.93;101669.53;4726022;29;122353;-88
2022/03/14 03:27:32;;;;;;;19.02;12.40;;;;;;;9.01;41.53;101708.31;4712882;29;120290;-88
2022/03/14 03:30:01;;;;;;;17.50;12.15;;;;;;;8.56;41.35;101649.16;4717866;29;119757;-88
2022/03/14 03:32:30;;;;;;;19.38;12.10;;;;;;;8.74;41.13;101678.19;4714511;29;121654;-88
2022/03/14 03:35:03;;;;;;;16.70;11.68;;;;;;;8.84;40.74;101696.41;4719370;29;123555;-88
2022/03/14 03:37:39;;;;;;;;;;;;;;;;;;;;;
2022/03/14 03:40:06;;;;;;;20.02;12.52;;;;;;;8.85;41.65;101714.38;4715996;29;123080;-88
2022/03/14 03:42:32;;;;;;;18.73;13.15;;;;;;;8.69;42.43;101698.56;4726062;29;119399;-88
2022/03/14 03:44:57;;;;;;;22.02;13.95;;;;;;;8.73;42.16;101710.22;4731104;29;119285;-89
2022/03/14 03:47:28;;;;;;;21.20;12.48;;;;;;;8.53;41.28;101685.53;4714566;29;123197;-89
2022/03/14 03:50:01;;;;;;;18.58;12.55;;;;;;;8.37;41.43;101657.22;4714622;29;119659;-89
2022/03/14 03:52:37;;;;;;;18.27;13.18;;;;;;;8.71;42.06;101712.63;4719187;29;122358;-88
2022/03/14 03:55:08;;;;;;;18.02;12.52;;;;;;;8.62;42.00;101706.88;4712135;29;122988;-88
2022/03/14 03:57:44;;;;;;;18.35;12.10;;;;;;;8.71;42.37;101707.16;4721580;29;120881;-89
2022/03/14 04:00:13;;;;;;;21.48;14.43;;;;;;;8.63;41.48;101713.13;4744725;29;120523;-88
2022/03/14 04:02:46;;;;;;;20.17;13.70;;;;;;;8.60;42.14;101712.78;4728968;29;119369;-88
2022/03/14 04:05:42;;;;;;;;;;;;;;;;;;;;;
2022/03/14 04:08:11;;;;;;;22.10;13.20;;;;;;;8.63;42.32;101718.59;4701716;29;122894;-89
2022/03/14 04:10:49;;;;;;;17.95;13.02;;;;;;;8.26;42.69;101662.78;4716422;29;119470;-88
2022/03/14 04:13:40;;;;;;;20.70;13.52;;;;;;;8.66;42.04;101723.25;4728202;29;123525;-89
2022/03/14 04:16:12;;;;;;;20.77;13.32;;;;;;;8.46;42.06;101701.22;4710341;29;122686;-88
2022/03/14 04:18:39;;;;;;;18.10;13.63;;;;;;;8.43;42.26;101708.31;4731628;29;119889;-89
2022/03/14 04:21:08;;;;;;;18.65;12.80;;;;;;;8.40;42.22;101700.91;4729184;29;122727;-89
2022/03/14 04:23:36;;;;;;;21.65;13.10;;;;;;;8.40;42.28;101702.88;4709710;29;119647;-88
2022/03/14 04:26:08;;;;;;;17.55;12.93;;;;;;;8.63;42.54;101745.94;4738227;29;122092;-88
2022/03/14 04:28:42;;;;;;;;;;;;;;;8.68;42.13;101757.19;4715717;29;123281;-88
2022/03/14 04:31:09;;;;;;;20.88;14.07;;;;;;;8.45;42.47;101727.03;4713273;29;119924;-89
2022/03/14 04:33:57;;;;;;;19.58;13.75;;;;;;;7.98;42.54;101661.19;4745771;29;125581;-89
2022/03/14 04:36:27;;;;;;;19.60;14.10;;;;;;;8.30;42.64;101720.94;4744437;29;120462;-88
2022/03/14 04:38:53;;;;;;;19.67;14.13;;;;;;;7.87;41.95;101661.31;4718438;29;119518;-89
2022/03/14 04:41:21;;;;;;;19.77;13.60;;;;;;;8.23;41.96;101726.47;4715888;29;121533;-89
2022/03/14 04:43:50;;;;;;;22.15;14.05;;;;;;;8.05;41.86;101712.25;4689249;29;119842;-88
2022/03/14 04:46:19;;;;;;;23.65;15.70;;;;;;;8.11;42.52;101729.75;4716796;29;121216;-89
2022/03/14 04:48:55;;;;;;;20.65;14.30;;;;;;;7.89;42.70;101697.19;4715721;29;123143;-88
2022/03/14 04:51:27;;;;;;;21.83;14.90;;;;;;;7.94;43.45;101721.34;4715964;29;120147;-88
2022/03/14 04:53:53;;;;;;;21.70;14.98;;;;;;;8.05;43.77;101753.25;4715459;29;119708;-89
2022/03/14 04:56:21;;;;;;;22.45;16.15;;;;;;;7.82;44.22;101723.81;4736035;29;122884;-89
2022/03/14 04:58:55;;;;;;;24.02;15.00;;;;;;;7.65;44.67;101706.41;4712311;29;119747;-89
2022/03/14 05:01:22;;;;;;;26.38;16.67;;;;;;;7.79;44.70;101722.66;4715255;29;120878;-89
2022/03/14 05:03:50;;;;;;;23.13;15.85;;;;;;;7.51;44.77;101687.44;4718393;29;123679;-88
2022/03/14 05:06:19;;;;;;;24.48;16.40;;;;;;;7.97;44.58;101758.78;4715164;29;121891;-89
2022/03/14 05:08:46;;;;;;;22.73;15.73;;;;;;;7.50;44.96;101683.16;4744321;29;122480;-89
2022/03/14 05:11:32;;;;;;;24.83;17.08;;;;;;;7.83;44.96;101725.38;4715594;29;120772;-89
2022/03/14 05:14:01;;;;;;;24.60;15.65;;;;;;;8.06;44.39;101754.81;4715386;29;121309;-89
2022/03/14 05:16:39;;;;;;;;;;;;;;;;;;;;;
2022/03/14 05:19:08;;;;;;;23.33;15.75;;;;;;;7.74;44.99;101693.06;4714457;29;119473;-89
2022/03/14 05:21:39;;;;;;;26.33;16.55;;;;;;;7.95;44.78;101725.63;4714568;29;121744;-89
2022/03/14 05:24:25;;;;;;;26.42;16.90;;;;;;;7.81;45.35;101701.19;4725518;29;121111;-89
2022/03/14 05:26:54;;;;;;;28.55;16.30;;;;;;;8.14;45.15;101748.84;4716194;29;119585;-89
2022/03/14 05:29:29;;;;;;;26.20;18.08;;;;;;;7.99;45.60;101728.31;4726114;29;122914;-90
2022/03/14 05:32:05;;;;;;;25.45;16.63;;;;;;;7.82;44.39;101707.44;4729194;29;119645;-90
2022/03/14 05:34:43;;;;;;;25.02;17.30;;;;;;;8.13;45.26;101757.44;4716004;29;121578;-89
2022/03/14 05:37:22;;;;;;;;;;;;;;;;;;;;;
2022/03/14 05:39:56;;;;;;;29.00;17.40;;;;;;;7.56;45.26;101681.53;4722695;29;120023;-89
2022/03/14 05:42:26;;;;;;;24.25;16.20;;;;;;;7.91;45.13;101735.81;4699183;29;121857;-89
2022/03/14 05:45:02;;;;;;;29.42;18.95;;;;;;;7.52;45.77;101680.78;4713607;29;122870;-89
2022/03/14 05:47:32;;;;;;;27.88;16.77;;;;;;;7.93;45.18;101736.19;4711940;29;119938;-89
2022/03/14 05:49:58;;;;;;;24.35;16.17;;;;;;;7.72;45.07;101708.31;4715351;29;121894;-90
2022/03/14 05:52:24;;;;;;;22.58;16.52;;;;;;;8.13;45.22;101771.13;4715094;29;119429;-89
2022/03/14 05:55:10;;;;;;;;;;;;;;;;;;;;;
2022/03/14 05:57:41;;;;;;;24.40;16.15;;;;;;;7.78;44.87;101715.63;4717730;29;122644;-90
2022/03/14 06:00:22;;;;;;;26.58;15.85;;;;;;;7.92;44.96;101733.84;4729267;29;119740;-90
2022/03/14 06:02:56;;;;;;;23.95;16.65;;;;;;;7.70;45.12;101711.44;4729253;29;122391;-90
2022/03/14 06:05:26;;;;;;;29.08;17.88;;;;;;;8.20;44.47;101801.09;4728311;29;123210;-89
2022/03/14 06:08:04;;;;;;;26.98;17.27;;;;;;;7.58;44.53;101707.28;4728635;29;119412;-89
2022/03/14 06:10:32;;;;;;;25.77;17.33;;;;;;;7.92;44.46;101767.41;4718438;29;121858;-91
2022/03/14 06:13:07;;;;;;;26.85;17.60;;;;;;;7.87;44.88;101770.59;4714612;29;119515;-89
2022/03/14 06:15:52;;;;;;;29.20;18.70;;;;;;;7.76;45.88;101753.50;4729716;29;119477;-90
2022/03/14 06:18:38;;;;;;;33.05;18.00;;;;;;;7.49;45.19;101714.38;4717461;29;120931;-89
2022/03/14 06:21:24;;;;;;;27.17;17.38;;;;;;;7.54;45.87;101711.19;4704504;29;120289;-91
2022/03/14 06:23:58;;;;;;;29.65;18.55;;;;;;;7.91;46.23;101776.78;4724618;29;121793;-89
2022/03/14 06:26:35;;;;;;;35.40;17.80;;;;;;;7.59;45.76;101710.78;4725647;29;123431;-89
2022/03/14 06:29:08;;;;;;;29.13;18.35;;;;;;;7.96;46.14;101779.06;4718123;29;119755;-90
2022/03/14 06:31:39;;;;;;;22.50;16.73;;;;;;;8.10;46.14;101780.91;4714522;29;121632;-89
2022/03/14 06:34:13;;;;;;;26.52;16.42;;;;;;;7.80;45.71;101729.66;4717885;29;122319;-90
2022/03/14 06:36:45;;;;;;;27.80;17.97;;;;;;;7.89;45.52;101735.44;4743979;29;119471;-90
2022/03/14 06:39:18;;;;;;;27.55;18.42;;;;;;;8.50;45.93;101817.59;4720595;29;122620;-89
2022/03/14 06:41:52;;;;;;;27.38;17.48;;;;;;;8.01;45.53;101731.41;4725360;29;120255;-89
2022/03/14 06:44:27;;;;;;;27.75;17.10;;;;;;;8.30;45.34;101756.50;4725488;29;122496;-89
2022/03/14 06:47:01;;;;;;;25.80;16.88;;;;;;;8.41;44.48;101762.63;4726945;29;120183;-89
2022/03/14 06:49:36;;;;;;;23.77;16.75;;;;;;;8.59;43.91;101771.38;4707069;29;119895;-90
2022/03/14 06:52:24;;;;;;;27.65;16.75;;;;;;;8.91;43.74;101822.94;4696966;29;119897;-89
2022/03/14 06:54:52;;;;;;;26.02;17.15;;;;;;;8.74;43.98;101774.69;4728429;29;122970;-89
2022/03/14 06:57:19;;;;;;;24.85;16.50;;;;;;;8.86;44.15;101789.81;4716771;29;119748;-87
2022/03/14 06:59:49;;;;;;;25.65;16.38;;;;;;;8.61;43.28;101749.09;4741990;29;121433;-89
2022/03/14 07:02:36;;;;;;;;;;;;;;;;;;;;;
2022/03/14 07:05:26;;;;;;;25.20;15.75;;;;;;;9.04;42.71;101798.56;4710774;29;121680;-90
2022/03/14 07:07:58;;;;;;;27.60;16.17;;;;;;;8.84;42.78;101756.63;4720400;29;122938;-89
2022/03/14 07:10:34;;;;;;;;;;;;;;;;;;;;;
2022/03/14 07:13:08;;;;;;;26.17;16.40;;;;;;;8.98;42.76;101755.63;4727257;29;122114;-89
2022/03/14 07:16:01;;;;;;;25.02;16.25;;;;;;;9.04;41.49;101754.00;4726796;29;120050;-89
2022/03/14 07:18:43;;;;;;;24.45;16.50;;;;;;;9.36;41.90;101797.31;4726780;29;119664;-89
2022/03/14 07:21:22;;;;;;;26.38;16.20;;;;;;;9.05;41.90;101745.38;4715286;29;121819;-89
2022/03/14 07:23:55;;;;;;;23.60;15.80;;;;;;;9.40;40.75;101792.53;4713247;29;119466;-90
2022/03/14 07:26:26;;;;;;;26.13;16.73;;;;;;;9.43;40.37;101788.97;4727930;29;121899;-89
2022/03/14 07:28:55;;;;;;;23.60;16.08;;;;;;;9.18;41.19;101760.00;4711466;29;122149;-89
2022/03/14 07:31:37;;;;;;;;;;;;;;;;;;;;;
2022/03/14 07:34:08;;;;;;;25.55;15.85;;;;;;;9.40;40.90;101778.84;4727886;29;121717;-89
2022/03/14 07:36:48;;;;;;;27.27;16.67;;;;;;;9.34;40.52;101770.34;4712425;29;123031;-89
2022/03/14 07:39:29;;;;;;;25.80;16.85;;;;;;;9.55;40.23;101791.16;4698878;29;119835;-89
2022/03/14 07:42:02;;;;;;;26.08;16.38;;;;;;;9.52;39.86;101770.84;4712306;29;122110;-89
2022/03/14 07:44:41;;;;;;;21.67;14.73;;;;;;;10.11;39.64;101868.13;4727892;29;123292;-89
2022/03/14 07:47:13;;;;;;;23.83;15.85;;;;;;;9.85;40.16;101807.47;4727193;29;121005;-89
2022/03/14 07:49:47;;;;;;;23.58;16.52;;;;;;;9.64;40.08;101774.16;4705189;29;122631;-88
2022/03/14 07:52:25;;;;;;;;;;;;;;;;;;;;;
2022/03/14 07:55:06;;;;;;;25.70;17.38;;;;;;;9.94;40.11;101785.00;4742732;29;119319;-89
2022/03/14 07:57:41;;;;;;;;;;;;;;;10.55;39.66;101866.19;4714168;29;122815;-88
2022/03/14 08:00:24;;;;;;;;;;;;;;;;;;;;;
2022/03/14 08:03:00;;;;;;;26.10;16.35;;;;;;;10.27;40.01;101782.47;4712514;29;121810;-88
2022/03/14 08:05:50;;;;;;;21.98;15.52;;;;;;;10.40;38.76;101791.59;4716834;29;120493;-88
2022/03/14 08:08:29;;;;;;;25.58;15.88;;;;;;;10.49;38.51;101775.38;4745856;29;119394;-88
2022/03/14 08:11:01;;;;;;;26.27;16.33;;;;;;;10.78;38.17;101805.72;4714105;29;123202;-88
2022/03/14 08:13:34;;;;;;;22.85;15.98;;;;;;;10.74;37.91;101785.84;4715141;29;119547;-88
2022/03/14 08:16:10;;;;;;;22.77;15.30;;;;;;;11.21;38.22;101851.50;4740441;29;122055;-88
2022/03/14 08:18:40;;;;;;;23.52;15.73;;;;;;;11.08;36.79;101818.41;4725675;29;123907;-88
2022/03/14 08:21:16;;;;;;;21.02;14.45;;;;;;;11.06;38.07;101807.09;4710444;29;119778;-88
2022/03/14 08:23:42;;;;;;;23.75;15.07;;;;;;;11.59;37.73;101871.81;4699388;29;122086;-87
2022/03/14 08:26:25;;;;;;;21.03;15.17;;;;;;;11.56;36.20;101856.16;4742702;29;120009;-86
2022/03/14 08:28:55;;;;;;;22.42;15.65;;;;;;;11.43;35.87;101833.34;4716090;29;119450;-88
2022/03/14 08:31:36;;;;;;;;;;;;;;;;;;;;;
2022/03/14 08:34:07;;;;;;;24.73;15.32;;;;;;;11.14;35.12;101786.53;4721454;29;119817;-88
2022/03/14 08:36:58;;;;;;;;;;;;;;;;;;;;;
2022/03/14 08:39:44;;;;;;;25.73;15.70;;;;;;;11.59;36.28;101857.28;4748549;29;122785;-87
2022/03/14 08:42:20;;;;;;;;;;;;;;;;;;;;;
2022/03/14 08:45:05;;;;;;;25.27;15.82;;;;;;;11.43;35.00;101819.59;4741989;29;121612;-88
2022/03/14 08:47:38;;;;;;;21.45;15.20;;;;;;;11.22;35.97;101787.91;4718895;29;123918;-88
2022/03/14 08:50:25;;;;;;;;;;;;;;;;;;;;;
2022/03/14 08:53:12;;;;;;;23.58;15.13;;;;;;;11.83;36.57;101875.22;4740721;29;121234;-88
2022/03/14 08:55:53;;;;;;;25.08;15.93;;;;;;;11.46;35.59;101799.50;4710933;29;119575;-88
2022/03/14 08:58:29;;;;;;;25.00;15.63;;;;;;;11.58;35.29;101803.53;4734518;29;123265;-88
2022/03/14 09:01:02;;;;;;;23.50;15.25;;;;;;;11.70;34.49;101808.34;4689160;29;123162;-88
2022/03/14 09:03:31;;;;;;;22.80;15.60;;;;;;;11.96;35.55;101825.78;4729706;29;119923;-88
2022/03/14 09:05:57;;;;;;;22.80;15.07;;;;;;;12.28;35.02;101875.22;4718320;29;122372;-88
2022/03/14 09:08:40;;;;;;;22.88;15.75;;;;;;;11.80;34.21;101798.31;4729475;29;123253;-88
2022/03/14 09:11:12;;;;;;;24.20;15.60;;;;;;;11.79;34.74;101792.03;4709965;29;121369;-88
2022/03/14 09:14:15;;;;;;;;;;;;;;;;;;;;;
2022/03/14 09:16:47;;;;;;;23.88;15.30;;;;;;;11.83;35.22;101814.75;4730586;29;122083;-87
2022/03/14 09:19:17;;;;;;;24.83;15.48;;;;;;;12.27;35.44;101881.94;4723805;29;122060;-88
2022/03/14 09:21:46;;;;;;;23.45;15.77;;;;;;;12.20;34.88;101862.09;4725795;29;123126;-88
2022/03/14 09:24:14;;;;;;;23.92;16.50;;;;;;;12.29;34.79;101879.53;4728201;29;120112;-87
2022/03/14 09:26:52;;;;;;;24.10;15.82;;;;;;;12.11;34.02;101840.72;4742558;29;120355;-88
2022/03/14 09:29:26;;;;;;;26.25;16.60;;;;;;;12.13;34.00;101843.81;4727256;29;123171;-88
2022/03/14 09:32:17;;;;;;;21.50;15.63;;;;;;;12.18;33.32;101850.75;4725057;29;119612;-88
2022/03/14 09:34:55;;;;;;;25.75;16.02;;;;;;;12.17;33.84;101849.22;4701651;29;121798;-88
2022/03/14 09:37:26;;;;;;;21.40;15.27;;;;;;;12.08;33.81;101833.34;4712686;29;123898;-88
2022/03/14 09:40:19;;;;;;;22.10;16.17;;;;;;;12.44;34.00;101890.16;4720397;29;119585;-88
2022/03/14 09:42:52;;;;;;;25.60;17.02;;;;;;;12.14;35.42;101834.38;4712891;29;122740;-88
2022/03/14 09:45:33;;;;;;;23.38;16.20;;;;;;;12.14;35.23;101839.09;4713070;29;119993;-89
2022/03/14 09:48:20;;;;;;;23.52;16.35;;;;;;;12.40;35.41;101879.25;4711404;29;121761;-88
2022/03/14 09:51:35;;;;;;;26.45;15.35;;;;;;;12.46;33.96;101888.53;4704615;29;120552;-88
2022/03/14 09:54:08;;;;;;;24.23;16.67;;;;;;;12.51;33.98;101900.97;4706706;29;119892;-88
2022/03/14 09:57:01;;;;;;;23.67;16.70;;;;;;;12.54;34.02;101897.38;4730044;29;120014;-88
2022/03/14 09:59:36;;;;;;;23.33;15.30;;;;;;;12.26;34.11;101855.63;4727129;29;120452;-88
2022/03/14 10:02:12;;;;;;;23.02;16.60;;;;;;;12.25;34.12;101848.59;4707671;29;119462;-88
2022/03/14 10:04:48;;;;;;;22.10;15.95;;;;;;;12.56;33.63;101889.47;4716384;29;120711;-88
2022/03/14 10:07:29;;;;;;;26.60;15.63;;;;;;;12.59;33.41;101897.63;4689845;29;121280;-87
2022/03/14 10:09:59;;;;;;;24.30;16.83;;;;;;;12.53;34.54;101885.56;4709886;29;121911;-87
2022/03/14 10:12:30;;;;;;;24.53;17.37;;;;;;;12.63;34.77;101896.75;4713169;29;124122;-87
2022/03/14 10:15:08;;;;;;;24.13;17.02;;;;;;;12.30;33.84;101847.28;4713403;29;119516;-87
2022/03/14 10:17:47;;;;;;;22.67;16.58;;;;;;;12.42;33.83;101854.06;4728677;29;121957;-87
2022/03/14 10:20:19;;;;;;;22.88;15.57;;;;;;;12.56;34.10;101870.19;4713255;29;123137;-88
2022/03/14 10:23:08;;;;;;;23.27;15.13;;;;;;;12.43;33.58;101850.09;4718393;29;119653;-87
2022/03/14 10:25:43;;;;;;;23.80;15.70;;;;;;;12.60;34.81;101873.63;4711356;29;121613;-87
2022/03/14 10:28:13;;;;;;;24.70;15.80;;;;;;;12.80;34.83;101907.28;4712475;29;119916;-87
2022/03/14 10:30:49;;;;;;;22.25;15.73;;;;;;;12.55;33.76;101865.91;4725027;29;122277;-87
2022/03/14 10:33:37;;;;;;;24.60;15.57;;;;;;;12.69;33.17;101875.72;4723067;29;121175;-88
2022/03/14 10:36:12;;;;;;;19.48;14.35;;;;;;;12.90;33.12;101908.19;4728185;29;120839;-87
2022/03/14 10:38:49;;;;;;;19.97;15.43;;;;;;;12.95;34.98;101906.88;4714193;29;121956;-87
2022/03/14 10:41:36;;;;;;;23.45;15.30;;;;;;;12.71;34.33;101865.06;4725401;29;121025;-87
2022/03/14 10:44:24;;;;;;;25.63;15.48;;;;;;;13.08;34.16;101911.22;4724243;29;119747;-87
2022/03/14 10:46:52;;;;;;;24.08;15.70;;;;;;;13.08;33.64;101915.94;4731290;29;121799;-87
2022/03/14 10:49:29;;;;;;;23.75;14.88;;;;;;;12.79;34.37;101869.16;4716235;29;123367;-87
2022/03/14 10:52:10;;;;;;;22.85;15.30;;;;;;;12.87;33.95;101868.53;4741864;29;121663;-87
2022/03/14 10:54:44;;;;;;;20.15;14.48;;;;;;;12.97;34.08;101876.91;4726579;29;123304;-87
2022/03/14 10:57:34;;;;;;;20.77;14.70;;;;;;;13.27;33.22;101922.53;4714174;29;121039;-87
2022/03/14 11:00:28;;;;;;;19.67;14.32;;;;;;;13.17;34.18;101902.28;4728700;29;121967;-87
2022/03/14 11:03:07;;;;;;;22.13;15.18;;;;;;;13.22;34.78;101915.53;4742233;29;122915;-87
2022/03/14 11:05:44;;;;;;;21.15;14.73;;;;;;;13.37;35.88;101924.16;4739836;29;119673;-86
2022/03/14 11:08:42;;;;;;;23.52;15.75;;;;;;;13.55;34.71;101948.44;4740712;29;120051;-86
2022/03/14 11:11:16;;;;;;;24.13;14.77;;;;;;;13.09;35.20;101870.66;4711934;29;122200;-86
2022/03/14 11:13:52;;;;;;;25.15;15.73;;;;;;;13.40;36.12;101904.00;4700176;29;119728;-86
2022/03/14 11:16:23;;;;;;;22.42;15.40;;;;;;;13.22;36.02;101865.94;4727816;29;122529;-86
2022/03/14 11:19:00;;;;;;;23.73;16.52;;;;;;;13.20;35.09;101857.34;4713177;29;119464;-86
2022/03/14 11:21:57;;;;;;;24.98;15.48;;;;;;;13.59;35.17;101918.78;4732509;29;120415;-86
2022/03/14 11:24:36;;;;;;;;;;;;;;;;;;;;;
2022/03/14 11:27:05;;;;;;;20.73;15.15;;;;;;;13.33;34.86;101855.38;4725961;29;119539;-86
2022/03/14 11:29:40;;;;;;;24.27;16.05;;;;;;;13.89;34.84;101929.25;4740274;29;121802;-86
2022/03/14 11:32:17;;;;;;;23.98;16.58;;;;;;;13.78;35.21;101898.50;4726524;29;123190;-86
2022/03/14 11:34:47;;;;;;;22.63;15.75;;;;;;;14.07;35.10;101923.94;4741536;29;119392;-86
2022/03/14 11:37:27;;;;;;;;;;;;;;;;;;;;;
2022/03/14 11:40:02;;;;;;;20.30;15.50;;;;;;;13.93;34.95;101882.22;4744918;29;119818;-85
2022/03/14 11:42:48;;;;;;;24.20;16.00;;;;;;;14.26;35.34;101913.84;4728445;29;122290;-86
2022/03/14 11:45:18;;;;;;;21.27;16.40;;;;;;;13.88;34.67;101855.22;4727650;29;124148;-86
2022/03/14 11:47:47;;;;;;;22.23;15.90;;;;;;;14.27;35.49;101906.34;4745390;29;120075;-86
2022/03/14 11:50:20;;;;;;;23.55;15.80;;;;;;;14.28;33.70;101905.13;4727972;29;121918;-86
2022/03/14 11:52:53;;;;;;;22.42;16.35;;;;;;;14.10;34.25;101878.88;4729974;29;120082;-86
2022/03/14 11:55:27;;;;;;;19.70;15.30;;;;;;;14.04;35.40;101852.31;4729718;29;119597;-86
2022/03/14 11:57:55;;;;;;;24.67;16.80;;;;;;;14.26;35.89;101877.97;4728499;29;122005;-86
2022/03/14 12:00:47;;;;;;;22.77;15.95;;;;;;;14.67;36.45;101925.91;4744842;29;122839;-86
2022/03/14 12:03:34;;;;;;;25.88;15.52;;;;;;;14.38;35.92;101877.13;4727458;29;121997;-86
2022/03/14 12:06:10;;;;;;;23.38;16.48;;;;;;;14.77;35.56;101926.72;4728313;29;123685;-86